Airport Name : Dakhla

Other Name : Dakhla

ICAO : GMMH

IATA : VIL

FAA :

Latitude : 23.718294

Longitude : -15.931994

Country : Western Sahara

Local Date and Time : 2/24/2018 4:08:00 PM

 

TAF (Terminal Aerodrome Forecast)

TAF GMMH 241100Z 2412/2518 20018KT 6000 BKN008 SCT030

 

METAR (METeorological Aerodrome Report)

GMMH 241600Z 23022KT 6000 FEW020 SCT026 21/16 Q1006 NOSIG

GMMH 241500Z 23019KT 170V240 6000 FEW010 21/16 Q1006 NOSIG

GMMH 241400Z 23023KT 6000 FEW016 21/15 Q1007 NOSIG

GMMH 241300Z 22019KT 6000 FEW006 20/15 Q1008 NOSIG